Terminal Aerodrome Forecast
Issued by NWS Upton, NY

Home | Current Version | Previous Version | Text Only | Print | Product List | Glossary On
Versions: 1 2 3 4 5 6 7 8 9 10 11 12 13 14 15 16 17 18 19 20 21 22 23 24 25
000
FTUS41 KOKX 191700
TAFBDR
TAF
KBDR 191738Z 1918/2018 10009KT P6SM FEW070
     FM192200 12008KT P6SM FEW040
     FM200300 14006KT P6SM SCT030
     FM200800 15006KT P6SM OVC030
     FM201500 16009KT P6SM BKN040=

USA.gov is the U.S. government's official web portal to all federal, state and local government web resources and services.